sensor_id;sensor_type;location;lat;lon;timestamp;pressure;altitude;pressure_sealevel;temperature;humidity
71907;BME280;59781;52.090;5.030;2022-08-24T00:02:24;101718.59;;;19.60;93.01
71907;BME280;59781;52.090;5.030;2022-08-24T00:04:52;101717.31;;;19.49;93.94
71907;BME280;59781;52.090;5.030;2022-08-24T00:07:19;101720.44;;;19.46;94.23
71907;BME280;59781;52.090;5.030;2022-08-24T00:09:47;101719.00;;;19.64;92.88
71907;BME280;59781;52.090;5.030;2022-08-24T00:12:13;101729.53;;;19.67;92.88
71907;BME280;59781;52.090;5.030;2022-08-24T00:14:41;101728.03;;;19.51;94.00
71907;BME280;59781;52.090;5.030;2022-08-24T00:17:08;101722.13;;;19.47;94.05
71907;BME280;59781;52.090;5.030;2022-08-24T00:19:34;101725.34;;;19.58;93.02
71907;BME280;59781;52.090;5.030;2022-08-24T00:22:00;101725.50;;;19.56;92.98
71907;BME280;59781;52.090;5.030;2022-08-24T00:24:27;101727.19;;;19.51;93.68
71907;BME280;59781;52.090;5.030;2022-08-24T00:26:53;101725.06;;;19.46;93.91
71907;BME280;59781;52.090;5.030;2022-08-24T00:29:21;101722.97;;;19.41;93.82
71907;BME280;59781;52.090;5.030;2022-08-24T00:31:47;101725.06;;;19.39;93.38
71907;BME280;59781;52.090;5.030;2022-08-24T00:34:15;101720.69;;;19.71;93.85
71907;BME280;59781;52.090;5.030;2022-08-24T00:36:42;101719.03;;;19.97;91.21
71907;BME280;59781;52.090;5.030;2022-08-24T00:39:11;101713.53;;;20.17;90.36
71907;BME280;59781;52.090;5.030;2022-08-24T00:41:42;101719.22;;;20.02;90.67
71907;BME280;59781;52.090;5.030;2022-08-24T00:44:11;101716.69;;;19.94;91.49
71907;BME280;59781;52.090;5.030;2022-08-24T00:46:51;101715.44;;;19.90;91.48
71907;BME280;59781;52.090;5.030;2022-08-24T00:52:26;101715.25;;;19.78;92.37
71907;BME280;59781;52.090;5.030;2022-08-24T00:55:06;101711.88;;;19.63;93.02
71907;BME280;59781;52.090;5.030;2022-08-24T00:57:41;101718.34;;;19.55;94.46
71907;BME280;59781;52.090;5.030;2022-08-24T01:00:19;101721.28;;;19.54;94.15
71907;BME280;59781;52.090;5.030;2022-08-24T01:02:53;101720.66;;;19.38;94.95
71907;BME280;59781;52.090;5.030;2022-08-24T01:05:24;101717.28;;;19.30;94.78
71907;BME280;59781;52.090;5.030;2022-08-24T01:07:51;101718.31;;;19.29;94.72
71907;BME280;59781;52.090;5.030;2022-08-24T01:10:25;101721.25;;;19.20;95.11
71907;BME280;59781;52.090;5.030;2022-08-24T01:12:56;101713.47;;;19.17;95.10
71907;BME280;59781;52.090;5.030;2022-08-24T01:15:26;101712.59;;;19.17;95.19
71907;BME280;59781;52.090;5.030;2022-08-24T01:17:53;101711.75;;;19.03;96.22
71907;BME280;59781;52.090;5.030;2022-08-24T01:20:43;101706.94;;;19.12;95.56
71907;BME280;59781;52.090;5.030;2022-08-24T01:23:39;101714.91;;;19.13;94.53
71907;BME280;59781;52.090;5.030;2022-08-24T01:26:13;101713.03;;;19.14;94.76
71907;BME280;59781;52.090;5.030;2022-08-24T01:28:46;101705.47;;;19.09;94.48
71907;BME280;59781;52.090;5.030;2022-08-24T01:31:20;101712.59;;;19.17;94.91
71907;BME280;59781;52.090;5.030;2022-08-24T01:33:50;101700.41;;;19.06;94.85
71907;BME280;59781;52.090;5.030;2022-08-24T01:36:25;101706.28;;;19.03;95.27
71907;BME280;59781;52.090;5.030;2022-08-24T01:38:59;101707.34;;;19.02;95.52
71907;BME280;59781;52.090;5.030;2022-08-24T01:41:30;101708.38;;;19.01;95.91
71907;BME280;59781;52.090;5.030;2022-08-24T01:43:58;101709.66;;;18.99;96.00
71907;BME280;59781;52.090;5.030;2022-08-24T01:46:27;101709.81;;;18.90;96.46
71907;BME280;59781;52.090;5.030;2022-08-24T01:48:54;101719.06;;;18.96;95.69
71907;BME280;59781;52.090;5.030;2022-08-24T01:51:23;101723.47;;;18.90;96.63
71907;BME280;59781;52.090;5.030;2022-08-24T01:53:53;101724.94;;;18.93;96.67
71907;BME280;59781;52.090;5.030;2022-08-24T01:56:18;101730.41;;;18.93;96.57
71907;BME280;59781;52.090;5.030;2022-08-24T01:58:46;101730.38;;;18.86;96.60
71907;BME280;59781;52.090;5.030;2022-08-24T02:01:15;101728.22;;;18.75;96.84
71907;BME280;59781;52.090;5.030;2022-08-24T02:03:43;101737.53;;;18.94;95.14
71907;BME280;59781;52.090;5.030;2022-08-24T02:06:09;101735.84;;;18.93;95.79
71907;BME280;59781;52.090;5.030;2022-08-24T02:08:36;101734.59;;;18.89;95.46
71907;BME280;59781;52.090;5.030;2022-08-24T02:11:05;101731.25;;;18.94;95.60
71907;BME280;59781;52.090;5.030;2022-08-24T02:13:34;101730.63;;;19.05;94.87
71907;BME280;59781;52.090;5.030;2022-08-24T02:16:01;101729.16;;;19.02;95.75
71907;BME280;59781;52.090;5.030;2022-08-24T02:18:32;101726.88;;;18.99;94.82
71907;BME280;59781;52.090;5.030;2022-08-24T02:21:00;101732.31;;;18.99;95.55
71907;BME280;59781;52.090;5.030;2022-08-24T02:23:27;101736.28;;;18.90;96.16
71907;BME280;59781;52.090;5.030;2022-08-24T02:25:55;101731.81;;;18.82;96.04
71907;BME280;59781;52.090;5.030;2022-08-24T02:28:21;101728.69;;;18.85;96.24
71907;BME280;59781;52.090;5.030;2022-08-24T02:30:48;101727.78;;;18.72;96.56
71907;BME280;59781;52.090;5.030;2022-08-24T02:33:14;101727.56;;;18.67;97.27
71907;BME280;59781;52.090;5.030;2022-08-24T02:35:40;101725.66;;;18.67;96.72
71907;BME280;59781;52.090;5.030;2022-08-24T02:38:07;101726.72;;;18.66;96.63
71907;BME280;59781;52.090;5.030;2022-08-24T02:40:34;101728.84;;;18.71;96.49
71907;BME280;59781;52.090;5.030;2022-08-24T02:43:01;101728.91;;;18.84;97.12
71907;BME280;59781;52.090;5.030;2022-08-24T02:45:27;101725.94;;;18.79;96.26
71907;BME280;59781;52.090;5.030;2022-08-24T02:47:53;101732.72;;;18.89;96.58
71907;BME280;59781;52.090;5.030;2022-08-24T02:50:21;101736.56;;;19.08;96.91
71907;BME280;59781;52.090;5.030;2022-08-24T02:52:47;101733.16;;;19.06;95.75
71907;BME280;59781;52.090;5.030;2022-08-24T02:55:16;101740.91;;;18.96;97.27
71907;BME280;59781;52.090;5.030;2022-08-24T02:57:43;101741.28;;;18.80;97.56
71907;BME280;59781;52.090;5.030;2022-08-24T03:00:13;101738.50;;;18.73;98.03
71907;BME280;59781;52.090;5.030;2022-08-24T03:02:49;101743.22;;;18.58;99.31
71907;BME280;59781;52.090;5.030;2022-08-24T03:05:16;101741.16;;;18.60;98.20
71907;BME280;59781;52.090;5.030;2022-08-24T03:07:43;101741.75;;;18.55;98.10
71907;BME280;59781;52.090;5.030;2022-08-24T03:10:10;101741.09;;;18.53;98.24
71907;BME280;59781;52.090;5.030;2022-08-24T03:12:37;101739.84;;;18.56;97.43
71907;BME280;59781;52.090;5.030;2022-08-24T03:15:08;101735.22;;;18.50;98.22
71907;BME280;59781;52.090;5.030;2022-08-24T03:17:37;101742.84;;;18.61;97.80
71907;BME280;59781;52.090;5.030;2022-08-24T03:20:06;101744.28;;;19.05;99.19
71907;BME280;59781;52.090;5.030;2022-08-24T03:22:35;101738.38;;;18.88;95.47
71907;BME280;59781;52.090;5.030;2022-08-24T03:25:03;101740.66;;;18.84;96.64
71907;BME280;59781;52.090;5.030;2022-08-24T03:27:30;101742.63;;;18.62;99.14
71907;BME280;59781;52.090;5.030;2022-08-24T03:29:56;101742.00;;;18.60;98.40
71907;BME280;59781;52.090;5.030;2022-08-24T03:32:22;101742.56;;;18.49;98.70
71907;BME280;59781;52.090;5.030;2022-08-24T03:34:49;101742.75;;;18.48;98.42
71907;BME280;59781;52.090;5.030;2022-08-24T03:37:16;101740.44;;;18.45;98.16
71907;BME280;59781;52.090;5.030;2022-08-24T03:39:42;101738.69;;;18.37;98.39
71907;BME280;59781;52.090;5.030;2022-08-24T03:42:08;101734.91;;;18.38;98.23
71907;BME280;59781;52.090;5.030;2022-08-24T03:44:34;101739.94;;;18.34;98.83
71907;BME280;59781;52.090;5.030;2022-08-24T03:46:59;101736.16;;;18.29;98.81
71907;BME280;59781;52.090;5.030;2022-08-24T03:49:26;101731.53;;;18.29;98.95
71907;BME280;59781;52.090;5.030;2022-08-24T03:51:52;101738.31;;;18.40;98.02
71907;BME280;59781;52.090;5.030;2022-08-24T03:54:21;101745.41;;;18.34;98.48
71907;BME280;59781;52.090;5.030;2022-08-24T03:56:46;101739.50;;;18.31;98.48
71907;BME280;59781;52.090;5.030;2022-08-24T03:59:12;101744.63;;;18.47;98.88
71907;BME280;59781;52.090;5.030;2022-08-24T04:01:41;101739.59;;;18.44;97.13
71907;BME280;59781;52.090;5.030;2022-08-24T04:04:08;101732.16;;;18.66;98.51
71907;BME280;59781;52.090;5.030;2022-08-24T04:06:36;101738.03;;;19.11;100.00
71907;BME280;59781;52.090;5.030;2022-08-24T04:09:04;101737.75;;;18.92;96.03
71907;BME280;59781;52.090;5.030;2022-08-24T04:11:33;101735.56;;;18.68;97.62
71907;BME280;59781;52.090;5.030;2022-08-24T04:13:59;101740.69;;;18.56;97.68
71907;BME280;59781;52.090;5.030;2022-08-24T04:16:27;101746.88;;;18.37;98.56
71907;BME280;59781;52.090;5.030;2022-08-24T04:19:12;101746.00;;;18.30;99.08
71907;BME280;59781;52.090;5.030;2022-08-24T04:21:39;101748.25;;;18.20;99.19
71907;BME280;59781;52.090;5.030;2022-08-24T04:24:07;101755.13;;;18.16;99.43
71907;BME280;59781;52.090;5.030;2022-08-24T04:26:37;101750.78;;;18.21;99.28
71907;BME280;59781;52.090;5.030;2022-08-24T04:29:07;101748.44;;;18.18;99.35
71907;BME280;59781;52.090;5.030;2022-08-24T04:31:40;101749.88;;;18.14;99.69
71907;BME280;59781;52.090;5.030;2022-08-24T04:34:08;101749.47;;;18.17;99.36
71907;BME280;59781;52.090;5.030;2022-08-24T04:36:38;101757.84;;;18.16;98.97
71907;BME280;59781;52.090;5.030;2022-08-24T04:39:05;101760.34;;;18.11;99.71
71907;BME280;59781;52.090;5.030;2022-08-24T04:41:49;101757.31;;;18.27;98.95
71907;BME280;59781;52.090;5.030;2022-08-24T04:44:15;101756.59;;;18.18;99.05
71907;BME280;59781;52.090;5.030;2022-08-24T04:46:41;101756.56;;;18.12;100.00
71907;BME280;59781;52.090;5.030;2022-08-24T04:49:08;101757.66;;;18.17;99.10
71907;BME280;59781;52.090;5.030;2022-08-24T04:51:34;101761.03;;;18.19;98.85
71907;BME280;59781;52.090;5.030;2022-08-24T04:54:00;101765.00;;;18.17;99.39
71907;BME280;59781;52.090;5.030;2022-08-24T04:56:26;101764.78;;;18.18;99.62
71907;BME280;59781;52.090;5.030;2022-08-24T04:58:55;101759.75;;;18.15;99.80
71907;BME280;59781;52.090;5.030;2022-08-24T05:01:24;101765.00;;;18.17;99.32
71907;BME280;59781;52.090;5.030;2022-08-24T05:03:55;101768.34;;;18.19;99.39
71907;BME280;59781;52.090;5.030;2022-08-24T05:06:23;101765.69;;;18.25;99.64
71907;BME280;59781;52.090;5.030;2022-08-24T05:08:51;101765.69;;;18.25;99.82
71907;BME280;59781;52.090;5.030;2022-08-24T05:11:20;101767.63;;;18.31;99.21
71907;BME280;59781;52.090;5.030;2022-08-24T05:13:51;101769.53;;;18.38;99.32
71907;BME280;59781;52.090;5.030;2022-08-24T05:16:18;101765.59;;;18.47;98.78
71907;BME280;59781;52.090;5.030;2022-08-24T05:18:46;101774.84;;;18.46;98.89
71907;BME280;59781;52.090;5.030;2022-08-24T05:21:17;101781.81;;;18.55;99.04
71907;BME280;59781;52.090;5.030;2022-08-24T05:23:44;101782.81;;;18.75;97.86
71907;BME280;59781;52.090;5.030;2022-08-24T05:26:14;101777.25;;;19.03;96.42
71907;BME280;59781;52.090;5.030;2022-08-24T05:28:53;101778.34;;;19.09;95.76
71907;BME280;59781;52.090;5.030;2022-08-24T05:31:23;101774.41;;;19.18;95.96
71907;BME280;59781;52.090;5.030;2022-08-24T05:33:50;101787.00;;;19.26;96.33
71907;BME280;59781;52.090;5.030;2022-08-24T05:36:21;101778.22;;;19.43;95.88
71907;BME280;59781;52.090;5.030;2022-08-24T05:38:49;101782.06;;;19.56;95.85
71907;BME280;59781;52.090;5.030;2022-08-24T05:41:18;101778.72;;;19.73;94.51
71907;BME280;59781;52.090;5.030;2022-08-24T05:43:46;101786.09;;;19.80;94.76
71907;BME280;59781;52.090;5.030;2022-08-24T05:46:12;101778.50;;;20.15;94.25
71907;BME280;59781;52.090;5.030;2022-08-24T05:48:39;101778.25;;;20.62;92.51
71907;BME280;59781;52.090;5.030;2022-08-24T05:51:06;101779.47;;;20.86;91.00
71907;BME280;59781;52.090;5.030;2022-08-24T05:53:37;101779.19;;;21.01;90.70
71907;BME280;59781;52.090;5.030;2022-08-24T05:56:07;101776.75;;;21.63;87.62
71907;BME280;59781;52.090;5.030;2022-08-24T06:01:12;101775.28;;;22.60;82.79
71907;BME280;59781;52.090;5.030;2022-08-24T06:03:43;101775.84;;;22.87;80.80
71907;BME280;59781;52.090;5.030;2022-08-24T06:06:12;101779.47;;;23.17;78.31
71907;BME280;59781;52.090;5.030;2022-08-24T06:08:42;101774.91;;;23.60;76.34
71907;BME280;59781;52.090;5.030;2022-08-24T06:11:26;101777.19;;;23.86;75.04
71907;BME280;59781;52.090;5.030;2022-08-24T06:14:01;101783.63;;;23.68;76.41
71907;BME280;59781;52.090;5.030;2022-08-24T06:16:53;101775.44;;;24.74;71.02
71907;BME280;59781;52.090;5.030;2022-08-24T06:19:21;101778.84;;;24.41;73.35
71907;BME280;59781;52.090;5.030;2022-08-24T06:21:50;101781.50;;;24.99;70.39
71907;BME280;59781;52.090;5.030;2022-08-24T06:24:19;101772.66;;;25.26;67.09
71907;BME280;59781;52.090;5.030;2022-08-24T06:27:06;101778.22;;;26.05;63.69
71907;BME280;59781;52.090;5.030;2022-08-24T06:30:00;101776.88;;;26.41;62.16
71907;BME280;59781;52.090;5.030;2022-08-24T06:32:43;101781.16;;;25.98;63.71
71907;BME280;59781;52.090;5.030;2022-08-24T06:35:19;101787.84;;;26.19;62.22
71907;BME280;59781;52.090;5.030;2022-08-24T06:37:45;101783.22;;;26.24;62.87
71907;BME280;59781;52.090;5.030;2022-08-24T06:40:11;101789.25;;;26.21;62.29
71907;BME280;59781;52.090;5.030;2022-08-24T06:42:37;101787.69;;;26.25;62.77
71907;BME280;59781;52.090;5.030;2022-08-24T06:45:14;101790.66;;;27.18;59.82
71907;BME280;59781;52.090;5.030;2022-08-24T06:47:40;101793.09;;;27.41;57.79
71907;BME280;59781;52.090;5.030;2022-08-24T06:50:06;101782.53;;;27.92;55.21
71907;BME280;59781;52.090;5.030;2022-08-24T06:52:34;101795.06;;;26.97;59.58
71907;BME280;59781;52.090;5.030;2022-08-24T06:55:01;101796.28;;;26.84;59.86
71907;BME280;59781;52.090;5.030;2022-08-24T06:57:27;101800.78;;;27.12;59.73
71907;BME280;59781;52.090;5.030;2022-08-24T06:59:53;101788.88;;;27.88;55.46
71907;BME280;59781;52.090;5.030;2022-08-24T07:02:19;101790.19;;;27.80;57.16
71907;BME280;59781;52.090;5.030;2022-08-24T07:04:46;101787.34;;;28.39;55.14
71907;BME280;59781;52.090;5.030;2022-08-24T07:07:30;101777.59;;;28.32;55.84
71907;BME280;59781;52.090;5.030;2022-08-24T07:09:59;101786.56;;;28.12;56.22
71907;BME280;59781;52.090;5.030;2022-08-24T07:12:25;101776.03;;;28.98;52.73
71907;BME280;59781;52.090;5.030;2022-08-24T07:14:52;101790.50;;;28.53;54.16
71907;BME280;59781;52.090;5.030;2022-08-24T07:17:18;101792.00;;;28.28;54.27
71907;BME280;59781;52.090;5.030;2022-08-24T07:19:45;101782.81;;;28.65;53.37
71907;BME280;59781;52.090;5.030;2022-08-24T07:22:13;101790.38;;;28.85;54.14
71907;BME280;59781;52.090;5.030;2022-08-24T07:24:39;101791.22;;;28.85;53.63
71907;BME280;59781;52.090;5.030;2022-08-24T07:27:05;101795.81;;;29.27;51.14
71907;BME280;59781;52.090;5.030;2022-08-24T07:29:32;101798.09;;;28.78;51.61
71907;BME280;59781;52.090;5.030;2022-08-24T07:31:58;101794.69;;;29.18;50.91
71907;BME280;59781;52.090;5.030;2022-08-24T07:34:31;101802.06;;;29.85;49.50
71907;BME280;59781;52.090;5.030;2022-08-24T07:36:58;101789.78;;;29.46;49.89
71907;BME280;59781;52.090;5.030;2022-08-24T07:39:27;101795.94;;;29.73;50.64
71907;BME280;59781;52.090;5.030;2022-08-24T07:41:54;101797.63;;;29.84;50.66
71907;BME280;59781;52.090;5.030;2022-08-24T07:44:22;101803.53;;;29.05;52.08
71907;BME280;59781;52.090;5.030;2022-08-24T07:46:47;101804.72;;;29.34;51.59
71907;BME280;59781;52.090;5.030;2022-08-24T07:49:14;101802.06;;;30.06;48.95
71907;BME280;59781;52.090;5.030;2022-08-24T07:51:40;101804.59;;;30.12;49.30
71907;BME280;59781;52.090;5.030;2022-08-24T07:54:06;101805.69;;;29.91;50.27
71907;BME280;59781;52.090;5.030;2022-08-24T07:56:40;101805.16;;;30.19;49.14
71907;BME280;59781;52.090;5.030;2022-08-24T07:59:07;101812.88;;;29.97;49.00
71907;BME280;59781;52.090;5.030;2022-08-24T08:01:33;101808.16;;;29.67;49.81
71907;BME280;59781;52.090;5.030;2022-08-24T08:03:59;101811.22;;;29.76;49.71
71907;BME280;59781;52.090;5.030;2022-08-24T08:06:25;101813.75;;;30.18;47.67
71907;BME280;59781;52.090;5.030;2022-08-24T08:08:55;101820.16;;;30.29;48.23
71907;BME280;59781;52.090;5.030;2022-08-24T08:11:21;101817.88;;;30.46;48.07
71907;BME280;59781;52.090;5.030;2022-08-24T08:13:47;101820.88;;;30.90;46.92
71907;BME280;59781;52.090;5.030;2022-08-24T08:16:13;101820.72;;;31.16;46.38
71907;BME280;59781;52.090;5.030;2022-08-24T08:18:40;101818.38;;;30.89;46.58
71907;BME280;59781;52.090;5.030;2022-08-24T08:21:10;101831.03;;;28.64;52.61
71907;BME280;59781;52.090;5.030;2022-08-24T08:23:57;101831.00;;;30.30;49.39
71907;BME280;59781;52.090;5.030;2022-08-24T08:26:48;101830.66;;;30.67;48.57
71907;BME280;59781;52.090;5.030;2022-08-24T08:29:33;101826.00;;;31.72;45.24
71907;BME280;59781;52.090;5.030;2022-08-24T08:32:00;101824.59;;;31.79;43.79
71907;BME280;59781;52.090;5.030;2022-08-24T08:34:28;101834.69;;;31.10;45.37
71907;BME280;59781;52.090;5.030;2022-08-24T08:36:56;101839.13;;;31.11;45.62
71907;BME280;59781;52.090;5.030;2022-08-24T08:39:23;101843.63;;;31.62;44.14
71907;BME280;59781;52.090;5.030;2022-08-24T08:42:11;101838.13;;;31.96;43.83
71907;BME280;59781;52.090;5.030;2022-08-24T08:45:14;101837.13;;;32.16;42.79
71907;BME280;59781;52.090;5.030;2022-08-24T08:48:16;101841.16;;;31.55;43.78
71907;BME280;59781;52.090;5.030;2022-08-24T08:57:34;101833.50;;;32.44;42.43
71907;BME280;59781;52.090;5.030;2022-08-24T09:03:31;101835.59;;;32.87;42.25
71907;BME280;59781;52.090;5.030;2022-08-24T09:17:59;101841.69;;;32.65;42.65
71907;BME280;59781;52.090;5.030;2022-08-24T09:20:47;101839.59;;;33.23;40.07
71907;BME280;59781;52.090;5.030;2022-08-24T09:33:43;101844.88;;;33.06;40.67
71907;BME280;59781;52.090;5.030;2022-08-24T09:45:44;101840.72;;;33.46;38.42
71907;BME280;59781;52.090;5.030;2022-08-24T09:51:58;101838.72;;;34.36;37.79
71907;BME280;59781;52.090;5.030;2022-08-24T09:54:39;101842.09;;;34.19;39.10
71907;BME280;59781;52.090;5.030;2022-08-24T10:00:46;101835.81;;;33.76;38.81
71907;BME280;59781;52.090;5.030;2022-08-24T10:10:25;101832.56;;;33.69;38.80
71907;BME280;59781;52.090;5.030;2022-08-24T10:19:38;101827.84;;;34.02;37.88
71907;BME280;59781;52.090;5.030;2022-08-24T10:22:35;101831.75;;;34.79;36.82
71907;BME280;59781;52.090;5.030;2022-08-24T10:29:13;101826.16;;;34.52;37.53
71907;BME280;59781;52.090;5.030;2022-08-24T10:32:17;101822.19;;;34.07;38.03
71907;BME280;59781;52.090;5.030;2022-08-24T10:40:48;101816.63;;;33.88;37.63
71907;BME280;59781;52.090;5.030;2022-08-24T10:46:58;101815.44;;;33.37;38.36
71907;BME280;59781;52.090;5.030;2022-08-24T10:49:39;101805.66;;;33.35;38.24
71907;BME280;59781;52.090;5.030;2022-08-24T10:55:31;101813.03;;;32.30;39.45
71907;BME280;59781;52.090;5.030;2022-08-24T11:00:40;101813.88;;;32.54;40.95
71907;BME280;59781;52.090;5.030;2022-08-24T11:03:14;101815.00;;;32.24;40.39
71907;BME280;59781;52.090;5.030;2022-08-24T11:05:50;101808.53;;;32.00;40.54
71907;BME280;59781;52.090;5.030;2022-08-24T11:08:24;101798.19;;;32.06;38.89
71907;BME280;59781;52.090;5.030;2022-08-24T11:11:11;101810.53;;;31.94;40.68
71907;BME280;59781;52.090;5.030;2022-08-24T11:19:05;101804.53;;;32.45;39.11
71907;BME280;59781;52.090;5.030;2022-08-24T11:27:01;101804.41;;;33.03;38.48
71907;BME280;59781;52.090;5.030;2022-08-24T11:35:15;101800.94;;;31.72;41.41
71907;BME280;59781;52.090;5.030;2022-08-24T11:37:56;101794.91;;;31.99;40.18
71907;BME280;59781;52.090;5.030;2022-08-24T11:40:36;101794.38;;;32.25;39.93
71907;BME280;59781;52.090;5.030;2022-08-24T11:46:34;101800.53;;;32.51;39.13
71907;BME280;59781;52.090;5.030;2022-08-24T11:49:49;101802.59;;;32.12;41.21
71907;BME280;59781;52.090;5.030;2022-08-24T11:56:50;101796.72;;;32.95;38.19
71907;BME280;59781;52.090;5.030;2022-08-24T12:00:21;101800.56;;;31.88;41.41
71907;BME280;59781;52.090;5.030;2022-08-24T12:08:41;101793.84;;;32.76;40.19
71907;BME280;59781;52.090;5.030;2022-08-24T12:13:02;101788.00;;;34.56;36.91
71907;BME280;59781;52.090;5.030;2022-08-24T12:20:41;101799.59;;;32.61;40.60
71907;BME280;59781;52.090;5.030;2022-08-24T12:27:46;101793.50;;;31.12;41.57
71907;BME280;59781;52.090;5.030;2022-08-24T12:30:16;101792.03;;;31.30;41.46
71907;BME280;59781;52.090;5.030;2022-08-24T12:38:02;101791.75;;;31.32;41.36
71907;BME280;59781;52.090;5.030;2022-08-24T12:49:24;101792.44;;;31.92;40.18
71907;BME280;59781;52.090;5.030;2022-08-24T12:59:50;101801.34;;;31.00;42.43
71907;BME280;59781;52.090;5.030;2022-08-24T13:07:31;101797.91;;;31.19;41.58
71907;BME280;59781;52.090;5.030;2022-08-24T13:14:24;101796.03;;;31.09;42.76
71907;BME280;59781;52.090;5.030;2022-08-24T13:37:17;101786.81;;;30.23;43.62
71907;BME280;59781;52.090;5.030;2022-08-24T13:40:33;101792.91;;;30.31;43.32
71907;BME280;59781;52.090;5.030;2022-08-24T13:43:39;101784.56;;;30.15;44.46
71907;BME280;59781;52.090;5.030;2022-08-24T13:48:01;101787.34;;;29.69;46.04
71907;BME280;59781;52.090;5.030;2022-08-24T14:07:09;101778.75;;;30.22;44.21
71907;BME280;59781;52.090;5.030;2022-08-24T14:14:20;101784.56;;;30.25;46.60
71907;BME280;59781;52.090;5.030;2022-08-24T14:21:46;101782.28;;;30.48;44.00
71907;BME280;59781;52.090;5.030;2022-08-24T14:25:11;101783.97;;;30.44;44.06
71907;BME280;59781;52.090;5.030;2022-08-24T14:42:57;101756.16;;;30.64;40.60
71907;BME280;59781;52.090;5.030;2022-08-24T14:54:15;101748.44;;;31.05;39.08
71907;BME280;59781;52.090;5.030;2022-08-24T15:01:02;101745.88;;;31.14;37.68
71907;BME280;59781;52.090;5.030;2022-08-24T15:12:12;101743.72;;;30.16;43.14
71907;BME280;59781;52.090;5.030;2022-08-24T15:16:08;101737.56;;;30.49;41.91
71907;BME280;59781;52.090;5.030;2022-08-24T15:19:56;101733.66;;;30.45;41.30
71907;BME280;59781;52.090;5.030;2022-08-24T15:28:30;101729.59;;;31.81;40.16
71907;BME280;59781;52.090;5.030;2022-08-24T15:31:01;101723.88;;;31.96;39.05
71907;BME280;59781;52.090;5.030;2022-08-24T15:33:34;101729.81;;;31.50;40.17
71907;BME280;59781;52.090;5.030;2022-08-24T15:36:24;101724.75;;;31.57;39.89
71907;BME280;59781;52.090;5.030;2022-08-24T15:38:50;101729.06;;;31.79;39.06
71907;BME280;59781;52.090;5.030;2022-08-24T15:41:39;101728.28;;;31.68;39.63
71907;BME280;59781;52.090;5.030;2022-08-24T15:44:21;101727.63;;;31.81;39.45
71907;BME280;59781;52.090;5.030;2022-08-24T15:46:58;101727.78;;;31.61;40.82
71907;BME280;59781;52.090;5.030;2022-08-24T15:49:33;101725.94;;;31.46;39.79
71907;BME280;59781;52.090;5.030;2022-08-24T15:55:15;101728.53;;;31.37;40.45
71907;BME280;59781;52.090;5.030;2022-08-24T15:58:36;101719.59;;;31.35;40.39
71907;BME280;59781;52.090;5.030;2022-08-24T16:14:40;101727.53;;;30.43;44.51
71907;BME280;59781;52.090;5.030;2022-08-24T16:17:34;101734.00;;;30.23;44.92
71907;BME280;59781;52.090;5.030;2022-08-24T16:20:16;101732.66;;;30.11;44.24
71907;BME280;59781;52.090;5.030;2022-08-24T16:23:27;101728.72;;;30.22;44.87
71907;BME280;59781;52.090;5.030;2022-08-24T16:26:19;101729.56;;;30.07;44.98
71907;BME280;59781;52.090;5.030;2022-08-24T16:28:48;101730.13;;;29.99;45.29
71907;BME280;59781;52.090;5.030;2022-08-24T16:36:51;101727.91;;;30.01;45.42
71907;BME280;59781;52.090;5.030;2022-08-24T16:39:17;101732.91;;;29.89;46.08
71907;BME280;59781;52.090;5.030;2022-08-24T16:41:47;101734.59;;;29.90;45.93
71907;BME280;59781;52.090;5.030;2022-08-24T16:44:16;101728.47;;;29.93;45.03
71907;BME280;59781;52.090;5.030;2022-08-24T16:46:45;101730.69;;;29.65;45.79
71907;BME280;59781;52.090;5.030;2022-08-24T16:49:11;101724.84;;;29.77;45.46
71907;BME280;59781;52.090;5.030;2022-08-24T16:51:36;101724.88;;;29.72;45.28
71907;BME280;59781;52.090;5.030;2022-08-24T16:54:02;101728.13;;;29.38;45.51
71907;BME280;59781;52.090;5.030;2022-08-24T16:56:35;101724.03;;;29.51;45.51
71907;BME280;59781;52.090;5.030;2022-08-24T16:59:25;101721.75;;;29.33;47.15
71907;BME280;59781;52.090;5.030;2022-08-24T17:01:54;101725.88;;;29.15;48.35
71907;BME280;59781;52.090;5.030;2022-08-24T17:04:20;101719.22;;;29.16;50.28
71907;BME280;59781;52.090;5.030;2022-08-24T17:06:46;101720.03;;;29.06;52.69
71907;BME280;59781;52.090;5.030;2022-08-24T17:09:16;101725.22;;;28.82;54.23
71907;BME280;59781;52.090;5.030;2022-08-24T17:14:52;101730.41;;;28.64;56.14
71907;BME280;59781;52.090;5.030;2022-08-24T17:17:20;101727.53;;;28.48;55.95
71907;BME280;59781;52.090;5.030;2022-08-24T17:23:46;101735.16;;;27.89;58.85
71907;BME280;59781;52.090;5.030;2022-08-24T17:26:13;101741.00;;;27.92;58.27
71907;BME280;59781;52.090;5.030;2022-08-24T17:28:43;101732.41;;;27.62;59.76
71907;BME280;59781;52.090;5.030;2022-08-24T17:31:13;101738.41;;;27.49;60.68
71907;BME280;59781;52.090;5.030;2022-08-24T17:33:40;101742.38;;;27.63;59.58
71907;BME280;59781;52.090;5.030;2022-08-24T17:36:08;101734.31;;;27.56;59.53
71907;BME280;59781;52.090;5.030;2022-08-24T17:38:42;101744.22;;;27.52;59.25
71907;BME280;59781;52.090;5.030;2022-08-24T17:41:11;101738.84;;;27.35;58.99
71907;BME280;59781;52.090;5.030;2022-08-24T17:43:37;101744.66;;;27.39;58.95
71907;BME280;59781;52.090;5.030;2022-08-24T17:46:03;101743.91;;;27.43;58.83
71907;BME280;59781;52.090;5.030;2022-08-24T17:48:51;101746.19;;;27.25;59.47
71907;BME280;59781;52.090;5.030;2022-08-24T17:51:53;101744.47;;;26.97;60.80
71907;BME280;59781;52.090;5.030;2022-08-24T17:54:21;101742.16;;;27.10;60.35
71907;BME280;59781;52.090;5.030;2022-08-24T17:57:12;101735.53;;;26.90;61.05
71907;BME280;59781;52.090;5.030;2022-08-24T17:59:39;101737.59;;;26.77;61.38
71907;BME280;59781;52.090;5.030;2022-08-24T18:02:08;101745.56;;;26.74;62.37